AXM583 RPLL-WMKK
Flight info
| Callsign | AXM583 |
|---|---|
| Flight time | N/A |
| Altitude | 38000 |
| Route | BUCAL2R BUCAL M646 TOKON/N0450F390 M767 TERIX/N0443F380 M758 IDSEL Y335 PADLI Y343 SAROX SAROX1G |
| Aircraft | A20N/M-SDE2E3FGHIRWXY/LB1 |
Departure
| Time | 2026-05-07 03:25 |
|---|---|
| Airport | Ninoy Aquino International Airport (RPLL) |
Arrival
| Time | N/A |
|---|---|
| Airport | Kuala Lumpur International Airport (WMKK) |
| Time | Latitude | Longitude | Altitude | Speed | Heading |
|---|---|---|---|---|---|
| 2026-05-07 02:47 | 14.50368 | 121.00481 | 69 ft | 0 kts | 308° |
| 2026-05-07 03:15 | 14.50360 | 121.00491 | 59 ft | 3 kts | 298° |
| 2026-05-07 03:15 | 14.50353 | 121.00512 | 60 ft | 3 kts | 274° |
| 2026-05-07 03:16 | 14.50352 | 121.00528 | 61 ft | 1 kts | 272° |
| 2026-05-07 03:16 | 14.50352 | 121.00531 | 61 ft | 0 kts | 272° |
| 2026-05-07 03:16 | 14.50353 | 121.00534 | 62 ft | 2 kts | 295° |
| 2026-05-07 03:17 | 14.50340 | 121.00542 | 63 ft | 2 kts | 303° |
| 2026-05-07 03:17 | 14.50337 | 121.00552 | 61 ft | 0 kts | 249° |
| 2026-05-07 03:21 | 14.50319 | 121.00527 | 66 ft | 9 kts | 233° |
| 2026-05-07 03:21 | 14.50268 | 121.00454 | 64 ft | 16 kts | 238° |
| 2026-05-07 03:22 | 14.50191 | 121.00344 | 66 ft | 20 kts | 204° |
| 2026-05-07 03:22 | 14.50097 | 121.00287 | 67 ft | 15 kts | 236° |
| 2026-05-07 03:22 | 14.50040 | 121.00192 | 77 ft | 16 kts | 239° |
| 2026-05-07 03:22 | 14.49982 | 121.00088 | 82 ft | 17 kts | 242° |
| 2026-05-07 03:23 | 14.49920 | 120.99982 | 85 ft | 17 kts | 224° |
| 2026-05-07 03:23 | 14.49878 | 120.99970 | 87 ft | 0 kts | 155° |
| 2026-05-07 03:23 | 14.49869 | 120.99974 | 86 ft | 5 kts | 158° |
| 2026-05-07 03:23 | 14.49808 | 121.00020 | 87 ft | 16 kts | 113° |
| 2026-05-07 03:24 | 14.49837 | 121.00113 | 83 ft | 7 kts | 57° |
| 2026-05-07 03:24 | 14.49993 | 121.00384 | 69 ft | 79 kts | 61° |
| 2026-05-07 03:24 | 14.50368 | 121.01053 | 58 ft | 134 kts | 59° |
| 2026-05-07 03:24 | 14.50911 | 121.02012 | 113 ft | 169 kts | 60° |
| 2026-05-07 03:25 | 14.51518 | 121.02992 | 903 ft | 161 kts | 58° |
| 2026-05-07 03:25 | 14.52100 | 121.04013 | 1500 ft | 168 kts | 61° |
| 2026-05-07 03:25 | 14.52676 | 121.05088 | 2036 ft | 178 kts | 63° |
| 2026-05-07 03:25 | 14.53303 | 121.06273 | 2460 ft | 197 kts | 62° |
| 2026-05-07 03:26 | 14.54005 | 121.07572 | 2895 ft | 217 kts | 62° |
| 2026-05-07 03:26 | 14.54784 | 121.08995 | 3403 ft | 236 kts | 62° |
| 2026-05-07 03:26 | 14.55608 | 121.10481 | 4221 ft | 240 kts | 61° |
| 2026-05-07 03:26 | 14.56226 | 121.12075 | 5064 ft | 241 kts | 82° |
| 2026-05-07 03:27 | 14.56160 | 121.13797 | 5858 ft | 244 kts | 105° |
| 2026-05-07 03:27 | 14.55387 | 121.15371 | 6546 ft | 250 kts | 129° |
| 2026-05-07 03:27 | 14.54156 | 121.16652 | 7197 ft | 254 kts | 134° |
| 2026-05-07 03:27 | 14.52844 | 121.17976 | 7210 ft | 277 kts | 134° |
| 2026-05-07 03:28 | 14.51927 | 121.18915 | 7015 ft | 282 kts | 133° |
| 2026-05-07 03:28 | 14.50113 | 121.20789 | 6977 ft | 272 kts | 133° |
| 2026-05-07 03:28 | 14.48771 | 121.22182 | 6981 ft | 275 kts | 133° |
| 2026-05-07 03:28 | 14.47245 | 121.23339 | 7213 ft | 281 kts | 155° |
| 2026-05-07 03:29 | 14.45315 | 121.23725 | 7962 ft | 287 kts | 180° |
| 2026-05-07 03:29 | 14.43363 | 121.23235 | 8736 ft | 295 kts | 205° |
| 2026-05-07 03:29 | 14.42210 | 121.22420 | 9233 ft | 300 kts | 222° |
| 2026-05-07 03:29 | 14.40312 | 121.20316 | 10225 ft | 306 kts | 227° |
| 2026-05-07 03:30 | 14.39354 | 121.19172 | 10446 ft | 320 kts | 228° |
| 2026-05-07 03:30 | 14.37868 | 121.17397 | 10659 ft | 341 kts | 227° |
| 2026-05-07 03:30 | 14.35705 | 121.14864 | 11160 ft | 358 kts | 227° |
| 2026-05-07 03:30 | 14.34603 | 121.13591 | 11616 ft | 360 kts | 227° |
| 2026-05-07 03:31 | 14.32347 | 121.11003 | 12488 ft | 366 kts | 226° |
| 2026-05-07 03:31 | 14.31218 | 121.09713 | 12944 ft | 368 kts | 227° |
| 2026-05-07 03:31 | 14.29491 | 121.07741 | 13633 ft | 372 kts | 226° |
| 2026-05-07 03:31 | 14.27620 | 121.05889 | 14188 ft | 375 kts | 218° |
| 2026-05-07 03:32 | 14.25506 | 121.04311 | 14773 ft | 377 kts | 212° |
| 2026-05-07 03:32 | 14.23317 | 121.02783 | 15343 ft | 381 kts | 213° |
| 2026-05-07 03:32 | 14.21118 | 121.01236 | 15908 ft | 385 kts | 213° |
| 2026-05-07 03:32 | 14.18900 | 120.99672 | 16479 ft | 388 kts | 213° |
| 2026-05-07 03:33 | 14.16664 | 120.98093 | 17023 ft | 391 kts | 213° |
| 2026-05-07 03:33 | 14.14404 | 120.96498 | 17525 ft | 396 kts | 212° |
| 2026-05-07 03:33 | 14.12121 | 120.94888 | 18053 ft | 399 kts | 213° |
| 2026-05-07 03:33 | 14.09820 | 120.93267 | 18556 ft | 402 kts | 213° |
| 2026-05-07 03:34 | 14.07505 | 120.91637 | 19027 ft | 404 kts | 213° |
| 2026-05-07 03:34 | 14.05177 | 120.89998 | 19507 ft | 407 kts | 213° |
| 2026-05-07 03:34 | 14.02833 | 120.88349 | 19968 ft | 410 kts | 213° |
| 2026-05-07 03:34 | 14.00478 | 120.86690 | 20438 ft | 412 kts | 213° |
| 2026-05-07 03:35 | 13.98132 | 120.85038 | 20877 ft | 415 kts | 213° |
| 2026-05-07 03:35 | 13.95739 | 120.83354 | 21330 ft | 418 kts | 213° |
| 2026-05-07 03:35 | 13.93328 | 120.81656 | 21756 ft | 421 kts | 213° |
| 2026-05-07 03:35 | 13.90906 | 120.79952 | 22210 ft | 424 kts | 213° |
| 2026-05-07 03:36 | 13.88468 | 120.78237 | 22638 ft | 426 kts | 213° |
| 2026-05-07 03:36 | 13.86008 | 120.76507 | 23054 ft | 430 kts | 213° |
| 2026-05-07 03:36 | 13.83532 | 120.74765 | 23470 ft | 432 kts | 213° |
| 2026-05-07 03:36 | 13.81045 | 120.73016 | 23821 ft | 435 kts | 213° |
| 2026-05-07 03:37 | 13.78545 | 120.71259 | 24205 ft | 436 kts | 213° |
| 2026-05-07 03:37 | 13.76027 | 120.69490 | 24564 ft | 439 kts | 214° |
| 2026-05-07 03:37 | 13.73505 | 120.67719 | 24904 ft | 441 kts | 214° |
| 2026-05-07 03:37 | 13.70959 | 120.65932 | 25238 ft | 444 kts | 214° |
| 2026-05-07 03:38 | 13.68401 | 120.64138 | 25574 ft | 446 kts | 214° |
| 2026-05-07 03:38 | 13.65837 | 120.62339 | 25918 ft | 448 kts | 214° |
| 2026-05-07 03:38 | 13.63251 | 120.60526 | 26248 ft | 451 kts | 213° |
| 2026-05-07 03:38 | 13.60636 | 120.58739 | 26562 ft | 453 kts | 211° |
| 2026-05-07 03:39 | 13.57853 | 120.57211 | 26885 ft | 455 kts | 204° |
| 2026-05-07 03:39 | 13.54974 | 120.55844 | 27205 ft | 457 kts | 205° |
| 2026-05-07 03:39 | 13.52090 | 120.54461 | 27515 ft | 459 kts | 205° |
| 2026-05-07 03:39 | 13.49195 | 120.53067 | 27819 ft | 461 kts | 205° |
| 2026-05-07 03:40 | 13.46283 | 120.51662 | 28143 ft | 463 kts | 205° |
| 2026-05-07 03:40 | 13.43366 | 120.50255 | 28470 ft | 465 kts | 205° |
| 2026-05-07 03:40 | 13.40434 | 120.48840 | 28778 ft | 466 kts | 205° |
| 2026-05-07 03:40 | 13.37491 | 120.47422 | 29093 ft | 468 kts | 205° |
| 2026-05-07 03:41 | 13.34538 | 120.46000 | 29385 ft | 470 kts | 205° |
| 2026-05-07 03:41 | 13.31567 | 120.44570 | 29682 ft | 472 kts | 205° |
| 2026-05-07 03:41 | 13.28594 | 120.43141 | 29939 ft | 474 kts | 205° |
| 2026-05-07 03:41 | 13.25639 | 120.41720 | 30202 ft | 475 kts | 205° |
| 2026-05-07 03:42 | 13.22638 | 120.40278 | 30484 ft | 476 kts | 205° |
| 2026-05-07 03:42 | 13.19636 | 120.38836 | 30764 ft | 477 kts | 205° |
| 2026-05-07 03:42 | 13.16623 | 120.37389 | 31056 ft | 478 kts | 205° |
| 2026-05-07 03:42 | 13.13619 | 120.35946 | 31421 ft | 476 kts | 206° |
| 2026-05-07 03:43 | 13.10625 | 120.34509 | 31809 ft | 474 kts | 206° |
| 2026-05-07 03:43 | 13.07642 | 120.33078 | 32190 ft | 472 kts | 206° |
| 2026-05-07 03:43 | 13.04676 | 120.31655 | 32562 ft | 470 kts | 206° |
| 2026-05-07 03:43 | 13.01721 | 120.30237 | 32917 ft | 468 kts | 206° |
| 2026-05-07 03:44 | 12.98775 | 120.28825 | 33251 ft | 466 kts | 206° |
| 2026-05-07 03:44 | 12.95847 | 120.27421 | 33581 ft | 465 kts | 206° |
| 2026-05-07 03:44 | 12.92918 | 120.26017 | 33899 ft | 463 kts | 206° |
| 2026-05-07 03:44 | 12.90008 | 120.24623 | 34174 ft | 461 kts | 206° |
| 2026-05-07 03:45 | 12.87106 | 120.23233 | 34437 ft | 460 kts | 206° |
| 2026-05-07 03:45 | 12.84210 | 120.21847 | 34685 ft | 458 kts | 206° |
| 2026-05-07 03:45 | 12.81325 | 120.20466 | 34919 ft | 457 kts | 206° |
| 2026-05-07 03:45 | 12.78446 | 120.19088 | 35152 ft | 456 kts | 206° |
| 2026-05-07 03:46 | 12.75572 | 120.17713 | 35381 ft | 455 kts | 206° |
| 2026-05-07 03:46 | 12.72706 | 120.16342 | 35615 ft | 454 kts | 206° |
| 2026-05-07 03:46 | 12.69859 | 120.14981 | 36127 ft | 439 kts | 206° |
| 2026-05-07 03:46 | 12.67210 | 120.13721 | 37608 ft | 409 kts | 206° |
| 2026-05-07 03:47 | 12.64644 | 120.12498 | 37902 ft | 408 kts | 206° |
| 2026-05-07 03:47 | 12.62034 | 120.11247 | 37541 ft | 421 kts | 206° |
| 2026-05-07 03:47 | 12.59347 | 120.09958 | 37242 ft | 430 kts | 206° |
| 2026-05-07 03:47 | 12.56668 | 120.08677 | 37004 ft | 431 kts | 206° |
| 2026-05-07 03:48 | 12.53943 | 120.07376 | 36432 ft | 434 kts | 206° |
| 2026-05-07 03:48 | 12.51262 | 120.06093 | 36969 ft | 415 kts | 206° |
| 2026-05-07 03:48 | 12.48709 | 120.04857 | 37403 ft | 404 kts | 207° |
| 2026-05-07 03:48 | 12.46104 | 120.03558 | 35815 ft | 434 kts | 208° |
| 2026-05-07 03:49 | 12.43315 | 120.02191 | 35201 ft | 445 kts | 205° |
| 2026-05-07 03:49 | 12.40541 | 120.01001 | 36319 ft | 416 kts | 204° |
| 2026-05-07 03:49 | 12.37983 | 119.99857 | 37473 ft | 393 kts | 206° |
| 2026-05-07 03:49 | 12.35439 | 119.98663 | 36952 ft | 412 kts | 206° |
| 2026-05-07 03:50 | 12.32806 | 119.97392 | 36565 ft | 423 kts | 207° |
| 2026-05-07 03:50 | 12.30145 | 119.96082 | 36239 ft | 425 kts | 207° |
| 2026-05-07 03:50 | 12.27464 | 119.94774 | 35651 ft | 430 kts | 206° |
| 2026-05-07 03:51 | 12.22011 | 119.92155 | 35853 ft | 433 kts | 206° |
| 2026-05-07 03:51 | 12.16477 | 119.89519 | 35873 ft | 444 kts | 206° |
| 2026-05-07 03:52 | 12.10821 | 119.86828 | 35873 ft | 453 kts | 206° |
| 2026-05-07 03:52 | 12.05104 | 119.84111 | 35872 ft | 452 kts | 206° |
| 2026-05-07 03:53 | 11.99409 | 119.81388 | 35867 ft | 452 kts | 206° |
| 2026-05-07 03:53 | 11.93709 | 119.78677 | 35872 ft | 452 kts | 206° |
| 2026-05-07 03:54 | 11.87998 | 119.75968 | 35869 ft | 452 kts | 206° |
| 2026-05-07 03:54 | 11.82291 | 119.73262 | 35870 ft | 452 kts | 206° |
| 2026-05-07 03:55 | 11.76585 | 119.70558 | 35867 ft | 452 kts | 206° |
| 2026-05-07 03:55 | 11.71172 | 119.67352 | 35866 ft | 450 kts | 219° |
| 2026-05-07 03:56 | 11.66763 | 119.62867 | 35866 ft | 448 kts | 233° |
| 2026-05-07 03:56 | 11.63102 | 119.57722 | 35866 ft | 448 kts | 234° |
| 2026-05-07 03:57 | 11.59427 | 119.52585 | 35862 ft | 448 kts | 234° |
| 2026-05-07 03:57 | 11.55752 | 119.47451 | 35866 ft | 449 kts | 234° |
| 2026-05-07 03:58 | 11.52073 | 119.42311 | 35864 ft | 449 kts | 234° |
| 2026-05-07 03:58 | 11.47560 | 119.36011 | 35879 ft | 450 kts | 234° |
| 2026-05-07 03:59 | 11.32754 | 119.15364 | 35862 ft | 452 kts | 234° |
| 2026-05-07 03:59 | 11.17912 | 118.94704 | 35859 ft | 452 kts | 234° |
| 2026-05-07 04:00 | 11.03055 | 118.74066 | 35872 ft | 452 kts | 234° |
| 2026-05-07 04:00 | 10.88193 | 118.53462 | 35884 ft | 451 kts | 234° |
| 2026-05-07 04:01 | 10.73349 | 118.32838 | 35875 ft | 451 kts | 235° |
| 2026-05-07 04:01 | 10.58435 | 118.12279 | 35874 ft | 452 kts | 235° |
| 2026-05-07 04:02 | 10.43525 | 117.91744 | 35868 ft | 452 kts | 235° |
| 2026-05-07 04:02 | 10.34610 | 117.79476 | 35866 ft | 453 kts | 235° |
| 2026-05-07 04:03 | 10.27235 | 117.69172 | 35867 ft | 452 kts | 235° |
| 2026-05-07 04:03 | 10.19816 | 117.58820 | 35865 ft | 453 kts | 235° |
| 2026-05-07 04:04 | 10.12379 | 117.48455 | 35865 ft | 454 kts | 235° |
| 2026-05-07 04:04 | 10.04936 | 117.38093 | 35867 ft | 455 kts | 235° |
| 2026-05-07 04:05 | 9.97483 | 117.27720 | 35862 ft | 455 kts | 235° |
| 2026-05-07 04:05 | 9.90015 | 117.17342 | 35861 ft | 455 kts | 235° |
| 2026-05-07 04:06 | 9.82536 | 117.06953 | 35859 ft | 456 kts | 235° |
| 2026-05-07 04:06 | 9.75045 | 116.96559 | 35863 ft | 457 kts | 235° |
| 2026-05-07 04:07 | 9.67534 | 116.86143 | 35867 ft | 458 kts | 235° |
| 2026-05-07 04:07 | 9.58299 | 116.73350 | 35867 ft | 459 kts | 235° |
| 2026-05-07 04:08 | 9.43180 | 116.52444 | 35863 ft | 461 kts | 235° |
| 2026-05-07 04:08 | 9.28019 | 116.31506 | 35866 ft | 461 kts | 235° |
| 2026-05-07 04:09 | 9.12749 | 116.10602 | 35864 ft | 462 kts | 234° |
| 2026-05-07 04:09 | 8.97447 | 115.89694 | 35863 ft | 462 kts | 234° |
| 2026-05-07 04:10 | 8.82142 | 115.68810 | 35857 ft | 462 kts | 234° |
| 2026-05-07 04:10 | 8.67096 | 115.48317 | 35867 ft | 463 kts | 234° |
| 2026-05-07 04:11 | 8.51800 | 115.27501 | 35857 ft | 465 kts | 234° |
| 2026-05-07 04:11 | 8.36328 | 115.06487 | 35860 ft | 467 kts | 234° |
| 2026-05-07 04:12 | 8.20829 | 114.85467 | 35857 ft | 466 kts | 234° |
| 2026-05-07 04:12 | 8.05335 | 114.64484 | 35847 ft | 465 kts | 234° |
| 2026-05-07 04:13 | 7.89861 | 114.43560 | 35851 ft | 468 kts | 233° |
| 2026-05-07 04:13 | 7.74292 | 114.22537 | 35853 ft | 468 kts | 233° |
| 2026-05-07 04:14 | 7.58692 | 114.01501 | 35854 ft | 468 kts | 233° |
| 2026-05-07 04:14 | 7.43087 | 113.80488 | 35851 ft | 468 kts | 233° |
| 2026-05-07 04:15 | 7.27445 | 113.59453 | 35852 ft | 469 kts | 233° |
| 2026-05-07 04:15 | 7.11815 | 113.38462 | 35852 ft | 468 kts | 233° |
| 2026-05-07 04:16 | 6.96170 | 113.17478 | 35853 ft | 468 kts | 232° |
| 2026-05-07 04:16 | 6.80627 | 112.96657 | 35851 ft | 468 kts | 232° |
| 2026-05-07 04:17 | 6.65010 | 112.75762 | 35849 ft | 467 kts | 232° |
| 2026-05-07 04:17 | 6.49436 | 112.54949 | 35847 ft | 466 kts | 232° |
| 2026-05-07 04:18 | 6.33792 | 112.34072 | 35844 ft | 467 kts | 232° |
| 2026-05-07 04:18 | 6.18140 | 112.13207 | 35849 ft | 468 kts | 232° |
| 2026-05-07 04:19 | 6.05092 | 111.95832 | 35854 ft | 469 kts | 232° |
| 2026-05-07 04:19 | 5.89422 | 111.74984 | 35863 ft | 468 kts | 231° |
| 2026-05-07 04:20 | 5.73726 | 111.54127 | 35847 ft | 467 kts | 231° |
| 2026-05-07 04:20 | 5.58069 | 111.33343 | 35844 ft | 467 kts | 231° |
| 2026-05-07 04:21 | 5.39825 | 111.09150 | 35850 ft | 469 kts | 231° |
| 2026-05-07 04:21 | 5.31959 | 110.98726 | 35851 ft | 469 kts | 231° |
| 2026-05-07 04:22 | 5.24062 | 110.88271 | 35857 ft | 470 kts | 231° |
| 2026-05-07 04:22 | 5.16163 | 110.77815 | 35861 ft | 470 kts | 231° |
| 2026-05-07 04:23 | 5.08266 | 110.67365 | 35859 ft | 470 kts | 231° |
| 2026-05-07 04:23 | 5.00377 | 110.56931 | 35859 ft | 469 kts | 231° |
| 2026-05-07 04:24 | 4.92500 | 110.46518 | 35851 ft | 469 kts | 231° |
| 2026-05-07 04:24 | 4.84614 | 110.36098 | 35849 ft | 468 kts | 231° |
| 2026-05-07 04:25 | 4.76750 | 110.25710 | 35845 ft | 468 kts | 231° |
| 2026-05-07 04:25 | 4.68926 | 110.15381 | 35843 ft | 468 kts | 231° |
| 2026-05-07 04:26 | 4.60992 | 110.04910 | 35841 ft | 469 kts | 231° |
| 2026-05-07 04:26 | 4.53154 | 109.94570 | 35849 ft | 469 kts | 231° |
| 2026-05-07 04:27 | 4.45254 | 109.84152 | 35852 ft | 470 kts | 231° |
| 2026-05-07 04:27 | 4.37352 | 109.73736 | 35856 ft | 470 kts | 231° |
| 2026-05-07 04:28 | 4.29416 | 109.63279 | 35857 ft | 471 kts | 231° |
| 2026-05-07 04:28 | 4.25999 | 109.57697 | 35857 ft | 473 kts | 244° |
| 2026-05-07 04:28 | 4.23813 | 109.51485 | 35851 ft | 474 kts | 255° |
| 2026-05-07 04:29 | 4.20481 | 109.38674 | 35853 ft | 475 kts | 255° |
| 2026-05-07 04:29 | 4.17126 | 109.25853 | 35855 ft | 476 kts | 255° |
| 2026-05-07 04:30 | 4.13772 | 109.13032 | 35857 ft | 476 kts | 254° |
| 2026-05-07 04:30 | 4.10414 | 109.00201 | 35860 ft | 476 kts | 254° |
| 2026-05-07 04:31 | 4.07051 | 108.87362 | 35860 ft | 476 kts | 254° |
| 2026-05-07 04:31 | 4.03687 | 108.74529 | 35858 ft | 476 kts | 254° |
| 2026-05-07 04:32 | 4.00360 | 108.61780 | 35857 ft | 476 kts | 254° |
| 2026-05-07 04:32 | 3.97025 | 108.48963 | 35852 ft | 476 kts | 254° |
| 2026-05-07 04:33 | 3.93684 | 108.36141 | 35851 ft | 475 kts | 254° |
| 2026-05-07 04:33 | 3.90346 | 108.23337 | 35853 ft | 475 kts | 254° |
| 2026-05-07 04:34 | 3.87498 | 108.12419 | 35856 ft | 475 kts | 254° |
| 2026-05-07 04:34 | 3.85827 | 108.06020 | 35852 ft | 475 kts | 254° |
| 2026-05-07 04:35 | 3.84157 | 107.99622 | 35853 ft | 475 kts | 254° |
| 2026-05-07 04:35 | 3.82486 | 107.93225 | 35851 ft | 474 kts | 254° |
| 2026-05-07 04:36 | 3.80816 | 107.86835 | 35850 ft | 474 kts | 254° |
| 2026-05-07 04:36 | 3.79148 | 107.80451 | 35849 ft | 474 kts | 254° |
| 2026-05-07 04:37 | 3.77480 | 107.74071 | 35850 ft | 474 kts | 254° |
| 2026-05-07 04:37 | 3.75821 | 107.67731 | 35847 ft | 474 kts | 254° |
| 2026-05-07 04:38 | 3.74152 | 107.61352 | 35847 ft | 474 kts | 254° |
| 2026-05-07 04:38 | 3.72484 | 107.54976 | 35850 ft | 473 kts | 254° |
| 2026-05-07 04:39 | 3.70816 | 107.48603 | 35846 ft | 474 kts | 254° |
| 2026-05-07 04:39 | 3.69145 | 107.42223 | 35847 ft | 474 kts | 254° |
| 2026-05-07 04:40 | 3.67474 | 107.35843 | 35847 ft | 474 kts | 254° |
| 2026-05-07 04:40 | 3.65802 | 107.29464 | 35848 ft | 474 kts | 254° |
| 2026-05-07 04:41 | 3.64130 | 107.23082 | 35848 ft | 474 kts | 254° |
| 2026-05-07 04:41 | 3.62457 | 107.16703 | 35853 ft | 474 kts | 254° |
| 2026-05-07 04:42 | 3.60782 | 107.10314 | 35851 ft | 474 kts | 254° |
| 2026-05-07 04:42 | 3.59107 | 107.03928 | 35853 ft | 474 kts | 254° |
| 2026-05-07 04:43 | 3.57431 | 106.97541 | 35855 ft | 474 kts | 254° |
| 2026-05-07 04:43 | 3.56107 | 106.91075 | 35854 ft | 475 kts | 263° |
| 2026-05-07 04:44 | 3.55724 | 106.84465 | 35851 ft | 476 kts | 266° |
| 2026-05-07 04:44 | 3.55387 | 106.77893 | 35854 ft | 476 kts | 266° |
| 2026-05-07 04:45 | 3.55044 | 106.71278 | 35854 ft | 476 kts | 266° |
| 2026-05-07 04:45 | 3.54702 | 106.64671 | 35853 ft | 476 kts | 266° |
| 2026-05-07 04:46 | 3.54361 | 106.58049 | 35852 ft | 476 kts | 266° |
| 2026-05-07 04:46 | 3.54019 | 106.51434 | 35850 ft | 476 kts | 266° |
| 2026-05-07 04:47 | 3.53678 | 106.44834 | 35849 ft | 475 kts | 266° |
| 2026-05-07 04:47 | 3.53336 | 106.38229 | 35847 ft | 475 kts | 266° |
| 2026-05-07 04:48 | 3.52995 | 106.31613 | 35850 ft | 475 kts | 266° |
| 2026-05-07 04:48 | 3.52661 | 106.25010 | 35848 ft | 475 kts | 266° |
| 2026-05-07 04:49 | 3.52326 | 106.18414 | 35847 ft | 475 kts | 266° |
| 2026-05-07 04:49 | 3.51990 | 106.11806 | 35847 ft | 475 kts | 266° |
| 2026-05-07 04:50 | 3.51654 | 106.05214 | 35844 ft | 474 kts | 266° |
| 2026-05-07 04:50 | 3.51320 | 105.98662 | 35843 ft | 474 kts | 266° |
| 2026-05-07 04:51 | 3.50983 | 105.92075 | 35844 ft | 474 kts | 266° |
| 2026-05-07 04:51 | 3.50646 | 105.85485 | 35844 ft | 474 kts | 266° |
| 2026-05-07 04:52 | 3.50307 | 105.78903 | 35841 ft | 474 kts | 266° |
| 2026-05-07 04:52 | 3.49977 | 105.72316 | 35843 ft | 474 kts | 266° |
| 2026-05-07 04:53 | 3.49648 | 105.65738 | 35842 ft | 474 kts | 266° |
| 2026-05-07 04:53 | 3.49316 | 105.59151 | 35840 ft | 474 kts | 266° |
| 2026-05-07 04:54 | 3.48985 | 105.52569 | 35841 ft | 474 kts | 266° |
| 2026-05-07 04:54 | 3.48653 | 105.45987 | 35841 ft | 474 kts | 266° |
| 2026-05-07 04:55 | 3.48322 | 105.39442 | 35840 ft | 474 kts | 266° |
| 2026-05-07 04:55 | 3.47989 | 105.32859 | 35841 ft | 474 kts | 266° |
| 2026-05-07 04:56 | 3.47655 | 105.26264 | 35843 ft | 474 kts | 266° |
| 2026-05-07 04:56 | 3.47320 | 105.19660 | 35849 ft | 474 kts | 266° |
| 2026-05-07 04:57 | 3.46985 | 105.13070 | 35858 ft | 474 kts | 266° |
| 2026-05-07 04:57 | 3.46649 | 105.06477 | 35859 ft | 474 kts | 266° |
| 2026-05-07 04:58 | 3.46314 | 104.99893 | 35845 ft | 473 kts | 266° |
| 2026-05-07 04:58 | 3.45979 | 104.93345 | 35844 ft | 471 kts | 266° |
| 2026-05-07 04:59 | 3.45644 | 104.86800 | 35843 ft | 471 kts | 266° |
| 2026-05-07 04:59 | 3.45309 | 104.80262 | 35844 ft | 471 kts | 266° |
| 2026-05-07 05:00 | 3.44974 | 104.73713 | 35842 ft | 471 kts | 266° |
| 2026-05-07 05:00 | 3.44638 | 104.67177 | 35840 ft | 471 kts | 266° |
| 2026-05-07 05:01 | 3.44301 | 104.60625 | 35841 ft | 471 kts | 266° |
| 2026-05-07 05:01 | 3.43964 | 104.54079 | 35839 ft | 471 kts | 266° |
| 2026-05-07 05:02 | 3.43631 | 104.47536 | 35843 ft | 471 kts | 266° |
| 2026-05-07 05:02 | 3.43303 | 104.40987 | 35845 ft | 471 kts | 266° |
| 2026-05-07 05:03 | 3.42974 | 104.34449 | 35846 ft | 471 kts | 266° |
| 2026-05-07 05:03 | 3.42647 | 104.27950 | 35845 ft | 471 kts | 266° |
| 2026-05-07 05:04 | 3.42307 | 104.21404 | 35846 ft | 470 kts | 266° |
| 2026-05-07 05:04 | 3.41955 | 104.14871 | 35846 ft | 470 kts | 265° |
| 2026-05-07 05:05 | 3.41615 | 104.08344 | 35845 ft | 470 kts | 266° |
| 2026-05-07 05:05 | 3.41293 | 104.01808 | 35844 ft | 470 kts | 266° |
| 2026-05-07 05:06 | 3.40676 | 103.95330 | 35841 ft | 468 kts | 256° |
| 2026-05-07 05:06 | 3.38467 | 103.89221 | 35835 ft | 466 kts | 240° |
| 2026-05-07 05:07 | 3.35064 | 103.83709 | 35832 ft | 466 kts | 237° |
| 2026-05-07 05:07 | 3.31611 | 103.78221 | 35831 ft | 466 kts | 237° |
| 2026-05-07 05:08 | 3.28161 | 103.72731 | 35833 ft | 466 kts | 237° |
| 2026-05-07 05:08 | 3.24704 | 103.67237 | 35836 ft | 467 kts | 237° |
| 2026-05-07 05:09 | 3.21260 | 103.61766 | 35835 ft | 467 kts | 237° |
| 2026-05-07 05:09 | 3.17798 | 103.56268 | 35838 ft | 468 kts | 237° |
| 2026-05-07 05:10 | 3.14645 | 103.50583 | 35840 ft | 468 kts | 246° |
| 2026-05-07 05:10 | 3.12156 | 103.44547 | 35840 ft | 469 kts | 247° |
| 2026-05-07 05:11 | 3.09657 | 103.38519 | 35840 ft | 469 kts | 247° |
| 2026-05-07 05:11 | 3.07157 | 103.32491 | 35839 ft | 470 kts | 247° |
| 2026-05-07 05:12 | 3.04652 | 103.26451 | 35840 ft | 470 kts | 247° |
| 2026-05-07 05:12 | 3.02571 | 103.21434 | 35838 ft | 469 kts | 247° |
| 2026-05-07 05:13 | 3.01319 | 103.18415 | 35595 ft | 468 kts | 247° |
| 2026-05-07 05:13 | 3.00076 | 103.15418 | 34807 ft | 467 kts | 247° |
| 2026-05-07 05:13 | 2.98818 | 103.12387 | 33544 ft | 475 kts | 247° |
| 2026-05-07 05:13 | 2.97535 | 103.09295 | 32032 ft | 485 kts | 247° |
| 2026-05-07 05:14 | 2.96234 | 103.06163 | 30872 ft | 486 kts | 247° |
| 2026-05-07 05:14 | 2.94958 | 103.03085 | 30090 ft | 479 kts | 247° |
| 2026-05-07 05:14 | 2.93697 | 103.00047 | 29507 ft | 467 kts | 247° |
| 2026-05-07 05:14 | 2.92453 | 102.97048 | 29104 ft | 466 kts | 247° |
| 2026-05-07 05:15 | 2.91209 | 102.94050 | 28548 ft | 463 kts | 247° |
| 2026-05-07 05:15 | 2.89984 | 102.91100 | 27986 ft | 455 kts | 247° |
| 2026-05-07 05:15 | 2.88793 | 102.88231 | 27441 ft | 444 kts | 247° |
| 2026-05-07 05:15 | 2.87619 | 102.85402 | 26902 ft | 433 kts | 247° |
| 2026-05-07 05:16 | 2.86477 | 102.82651 | 26374 ft | 422 kts | 247° |
| 2026-05-07 05:16 | 2.85358 | 102.79957 | 25877 ft | 432 kts | 247° |
| 2026-05-07 05:16 | 2.84195 | 102.77158 | 25565 ft | 434 kts | 247° |
| 2026-05-07 05:16 | 2.83031 | 102.74356 | 24885 ft | 437 kts | 247° |
| 2026-05-07 05:17 | 2.81859 | 102.71533 | 24149 ft | 436 kts | 247° |
| 2026-05-07 05:17 | 2.80723 | 102.68793 | 23663 ft | 426 kts | 247° |
| 2026-05-07 05:17 | 2.79767 | 102.66011 | 23071 ft | 417 kts | 255° |
| 2026-05-07 05:17 | 2.79095 | 102.63232 | 22628 ft | 403 kts | 256° |
| 2026-05-07 05:18 | 2.78434 | 102.60495 | 22255 ft | 411 kts | 256° |
| 2026-05-07 05:18 | 2.77740 | 102.57650 | 21838 ft | 428 kts | 256° |
| 2026-05-07 05:18 | 2.77040 | 102.54787 | 21415 ft | 428 kts | 256° |
| 2026-05-07 05:18 | 2.76336 | 102.51908 | 21002 ft | 423 kts | 256° |
| 2026-05-07 05:19 | 2.75641 | 102.49059 | 20588 ft | 420 kts | 256° |
| 2026-05-07 05:19 | 2.74950 | 102.46223 | 20176 ft | 418 kts | 256° |
| 2026-05-07 05:19 | 2.74261 | 102.43393 | 19765 ft | 416 kts | 256° |
| 2026-05-07 05:19 | 2.73578 | 102.40594 | 19363 ft | 413 kts | 256° |
| 2026-05-07 05:20 | 2.72908 | 102.37843 | 18958 ft | 411 kts | 256° |
| 2026-05-07 05:20 | 2.72234 | 102.35077 | 18547 ft | 408 kts | 256° |
| 2026-05-07 05:20 | 2.71563 | 102.32325 | 18126 ft | 406 kts | 256° |
| 2026-05-07 05:20 | 2.70983 | 102.29567 | 17723 ft | 403 kts | 265° |
| 2026-05-07 05:21 | 2.71095 | 102.26785 | 17327 ft | 399 kts | 282° |
| 2026-05-07 05:21 | 2.73603 | 102.22032 | 16678 ft | 384 kts | 317° |
| 2026-05-07 05:21 | 2.75529 | 102.20247 | 16538 ft | 368 kts | 321° |
| 2026-05-07 05:22 | 2.77415 | 102.18615 | 16362 ft | 350 kts | 321° |
| 2026-05-07 05:22 | 2.79322 | 102.17222 | 16192 ft | 327 kts | 336° |
| 2026-05-07 05:22 | 2.81367 | 102.16522 | 16050 ft | 304 kts | 354° |
| 2026-05-07 05:22 | 2.83399 | 102.16466 | 15909 ft | 282 kts | 7° |
| 2026-05-07 05:23 | 2.85307 | 102.16597 | 15716 ft | 268 kts | 7° |
| 2026-05-07 05:23 | 2.87146 | 102.16702 | 15356 ft | 264 kts | 4° |
| 2026-05-07 05:23 | 2.88975 | 102.16569 | 15146 ft | 267 kts | 353° |
| 2026-05-07 05:23 | 2.90801 | 102.16187 | 15099 ft | 269 kts | 352° |
| 2026-05-07 05:24 | 2.92645 | 102.15808 | 15077 ft | 271 kts | 352° |
| 2026-05-07 05:24 | 2.94504 | 102.15435 | 15042 ft | 271 kts | 351° |
| 2026-05-07 05:24 | 2.96303 | 102.14890 | 14997 ft | 271 kts | 340° |
| 2026-05-07 05:24 | 2.97993 | 102.14069 | 14884 ft | 274 kts | 336° |
| 2026-05-07 05:25 | 2.99698 | 102.13215 | 14660 ft | 273 kts | 336° |
| 2026-05-07 05:25 | 3.01396 | 102.12371 | 14426 ft | 269 kts | 337° |
| 2026-05-07 05:25 | 3.03025 | 102.11419 | 14198 ft | 272 kts | 327° |
| 2026-05-07 05:25 | 3.04479 | 102.10189 | 13979 ft | 273 kts | 321° |
| 2026-05-07 05:26 | 3.05875 | 102.08946 | 13755 ft | 272 kts | 321° |
| 2026-05-07 05:26 | 3.07299 | 102.07691 | 13519 ft | 272 kts | 321° |
| 2026-05-07 05:26 | 3.08657 | 102.06385 | 13250 ft | 271 kts | 313° |
| 2026-05-07 05:26 | 3.09761 | 102.04846 | 13019 ft | 272 kts | 305° |
| 2026-05-07 05:27 | 3.10788 | 102.03280 | 12769 ft | 271 kts | 305° |
| 2026-05-07 05:27 | 3.11831 | 102.01709 | 12519 ft | 269 kts | 305° |
| 2026-05-07 05:27 | 3.12819 | 102.00146 | 12274 ft | 267 kts | 298° |
| 2026-05-07 05:27 | 3.13519 | 101.98419 | 12036 ft | 269 kts | 289° |
| 2026-05-07 05:28 | 3.14102 | 101.96640 | 11797 ft | 268 kts | 289° |
| 2026-05-07 05:28 | 3.14372 | 101.94819 | 11552 ft | 265 kts | 263° |
| 2026-05-07 05:28 | 3.13772 | 101.93085 | 11318 ft | 266 kts | 233° |
| 2026-05-07 05:28 | 3.12446 | 101.91872 | 11173 ft | 255 kts | 203° |
| 2026-05-07 05:29 | 3.10749 | 101.91395 | 11144 ft | 255 kts | 186° |
| 2026-05-07 05:29 | 3.09009 | 101.91153 | 11109 ft | 255 kts | 184° |
| 2026-05-07 05:29 | 3.07245 | 101.90918 | 11067 ft | 254 kts | 185° |
| 2026-05-07 05:29 | 3.05489 | 101.90645 | 11031 ft | 255 kts | 187° |
| 2026-05-07 05:30 | 3.03764 | 101.90341 | 10994 ft | 255 kts | 187° |
| 2026-05-07 05:30 | 3.02015 | 101.90012 | 10950 ft | 255 kts | 188° |
| 2026-05-07 05:30 | 3.00278 | 101.89675 | 10913 ft | 254 kts | 188° |
| 2026-05-07 05:30 | 2.98535 | 101.89334 | 10875 ft | 254 kts | 188° |
| 2026-05-07 05:31 | 2.96797 | 101.88994 | 10832 ft | 254 kts | 188° |
| 2026-05-07 05:31 | 2.95084 | 101.88659 | 10797 ft | 254 kts | 188° |
| 2026-05-07 05:31 | 2.93347 | 101.88320 | 10767 ft | 254 kts | 188° |
| 2026-05-07 05:31 | 2.91618 | 101.87984 | 10723 ft | 253 kts | 188° |
| 2026-05-07 05:32 | 2.89888 | 101.87647 | 10689 ft | 253 kts | 188° |
| 2026-05-07 05:32 | 2.88153 | 101.87311 | 10657 ft | 253 kts | 188° |
| 2026-05-07 05:32 | 2.86455 | 101.86852 | 10612 ft | 255 kts | 205° |
| 2026-05-07 05:32 | 2.85102 | 101.85738 | 10563 ft | 259 kts | 232° |
| 2026-05-07 05:33 | 2.84078 | 101.84241 | 10406 ft | 261 kts | 235° |
| 2026-05-07 05:33 | 2.83078 | 101.82738 | 10229 ft | 256 kts | 235° |
| 2026-05-07 05:33 | 2.82088 | 101.81258 | 10074 ft | 256 kts | 233° |
| 2026-05-07 05:33 | 2.80818 | 101.80072 | 10328 ft | 253 kts | 209° |
| 2026-05-07 05:34 | 2.79233 | 101.79487 | 10379 ft | 239 kts | 181° |
| 2026-05-07 05:34 | 2.77671 | 101.79742 | 10278 ft | 221 kts | 149° |
| 2026-05-07 05:34 | 2.76448 | 101.80612 | 10128 ft | 214 kts | 137° |
| 2026-05-07 05:34 | 2.75316 | 101.81606 | 9998 ft | 217 kts | 137° |
| 2026-05-07 05:35 | 2.74150 | 101.82571 | 9859 ft | 216 kts | 140° |
| 2026-05-07 05:35 | 2.72944 | 101.83478 | 9632 ft | 217 kts | 142° |
| 2026-05-07 05:35 | 2.71728 | 101.84332 | 9347 ft | 216 kts | 143° |
| 2026-05-07 05:35 | 2.70487 | 101.85174 | 9047 ft | 214 kts | 144° |
| 2026-05-07 05:36 | 2.69248 | 101.86002 | 8750 ft | 213 kts | 144° |
| 2026-05-07 05:36 | 2.68013 | 101.86825 | 8450 ft | 212 kts | 144° |
| 2026-05-07 05:36 | 2.66781 | 101.87648 | 8155 ft | 212 kts | 144° |
| 2026-05-07 05:36 | 2.65573 | 101.88457 | 7865 ft | 212 kts | 144° |
| 2026-05-07 05:37 | 2.64347 | 101.89280 | 7568 ft | 212 kts | 144° |
| 2026-05-07 05:37 | 2.63120 | 101.90102 | 7273 ft | 212 kts | 144° |
| 2026-05-07 05:37 | 2.61970 | 101.90867 | 7559 ft | 177 kts | 144° |
| 2026-05-07 05:37 | 2.60931 | 101.91558 | 7795 ft | 183 kts | 144° |
| 2026-05-07 05:38 | 2.59885 | 101.92260 | 7846 ft | 178 kts | 144° |
| 2026-05-07 05:38 | 2.58898 | 101.92921 | 7791 ft | 168 kts | 144° |
| 2026-05-07 05:38 | 2.57958 | 101.93552 | 7664 ft | 159 kts | 144° |
| 2026-05-07 05:38 | 2.57035 | 101.94171 | 7383 ft | 162 kts | 144° |
| 2026-05-07 05:39 | 2.56061 | 101.94827 | 6993 ft | 173 kts | 144° |
| 2026-05-07 05:39 | 2.55046 | 101.95510 | 6634 ft | 182 kts | 144° |
| 2026-05-07 05:39 | 2.53856 | 101.96045 | 6172 ft | 196 kts | 170° |
| 2026-05-07 05:39 | 2.52459 | 101.95842 | 5537 ft | 215 kts | 204° |
| 2026-05-07 05:40 | 2.51303 | 101.94826 | 4825 ft | 231 kts | 232° |
| 2026-05-07 05:40 | 2.50384 | 101.93474 | 4058 ft | 245 kts | 236° |
| 2026-05-07 05:40 | 2.49482 | 101.92034 | 3721 ft | 238 kts | 237° |
| 2026-05-07 05:40 | 2.48610 | 101.90656 | 3404 ft | 232 kts | 236° |
| 2026-05-07 05:41 | 2.47718 | 101.89287 | 2819 ft | 238 kts | 235° |
| 2026-05-07 05:41 | 2.46988 | 101.87876 | 2868 ft | 209 kts | 259° |
| 2026-05-07 05:41 | 2.47051 | 101.86588 | 3233 ft | 168 kts | 287° |
| 2026-05-07 05:41 | 2.47558 | 101.85607 | 3266 ft | 160 kts | 311° |
| 2026-05-07 05:42 | 2.48354 | 101.84825 | 3280 ft | 160 kts | 324° |
| 2026-05-07 05:42 | 2.49244 | 101.84175 | 3260 ft | 157 kts | 329° |
| 2026-05-07 05:42 | 2.50166 | 101.83562 | 3255 ft | 159 kts | 328° |
| 2026-05-07 05:42 | 2.51068 | 101.82955 | 3121 ft | 161 kts | 329° |
| 2026-05-07 05:43 | 2.52026 | 101.82319 | 2771 ft | 171 kts | 327° |
| 2026-05-07 05:43 | 2.53064 | 101.81621 | 2358 ft | 187 kts | 328° |
| 2026-05-07 05:43 | 2.54162 | 101.80890 | 2208 ft | 186 kts | 328° |
| 2026-05-07 05:43 | 2.55226 | 101.80180 | 2156 ft | 181 kts | 329° |
| 2026-05-07 05:44 | 2.56248 | 101.79500 | 2063 ft | 172 kts | 327° |
| 2026-05-07 05:44 | 2.57041 | 101.78960 | 2597 ft | 131 kts | 330° |
| 2026-05-07 05:44 | 2.58089 | 101.78338 | 2331 ft | 212 kts | 333° |
| 2026-05-07 05:44 | 2.59429 | 101.77639 | 3244 ft | 224 kts | 330° |
| 2026-05-07 05:45 | 2.60980 | 101.76780 | 3089 ft | 287 kts | 330° |
| 2026-05-07 05:45 | 2.62622 | 101.75511 | 3030 ft | 307 kts | 316° |
| 2026-05-07 05:45 | 2.64209 | 101.74030 | 3002 ft | 316 kts | 324° |
| 2026-05-07 05:45 | 2.66128 | 101.72887 | 2849 ft | 323 kts | 330° |
| 2026-05-07 05:46 | 2.68167 | 101.71733 | 1631 ft | 356 kts | 329° |
| 2026-05-07 05:46 | 2.70307 | 101.70512 | 2086 ft | 342 kts | 333° |
| 2026-05-07 05:46 | 2.72343 | 101.69570 | 3452 ft | 297 kts | 341° |
| 2026-05-07 05:46 | 2.74111 | 101.69079 | 5498 ft | 227 kts | 355° |
| 2026-05-07 05:47 | 2.75499 | 101.69027 | 7347 ft | 195 kts | 3° |
| 2026-05-07 05:47 | 2.76849 | 101.68938 | 8365 ft | 203 kts | 349° |
| 2026-05-07 05:47 | 2.78310 | 101.68240 | 7984 ft | 265 kts | 323° |
| 2026-05-07 05:47 | 2.79882 | 101.67238 | 7791 ft | 270 kts | 341° |
| 2026-05-07 05:48 | 2.81559 | 101.66441 | 7731 ft | 265 kts | 323° |
| 2026-05-07 05:48 | 2.82696 | 101.65039 | 7644 ft | 257 kts | 295° |
| 2026-05-07 05:48 | 2.83028 | 101.63334 | 7509 ft | 247 kts | 265° |
| 2026-05-07 05:48 | 2.82517 | 101.61721 | 7212 ft | 244 kts | 234° |
| 2026-05-07 05:49 | 2.81430 | 101.60456 | 6918 ft | 242 kts | 225° |
| 2026-05-07 05:49 | 2.80272 | 101.59238 | 6662 ft | 241 kts | 225° |
| 2026-05-07 05:49 | 2.79071 | 101.58077 | 6379 ft | 239 kts | 211° |
| 2026-05-07 05:49 | 2.77558 | 101.57557 | 6225 ft | 228 kts | 179° |
| 2026-05-07 05:50 | 2.76007 | 101.57885 | 6111 ft | 230 kts | 149° |
| 2026-05-07 05:50 | 2.74788 | 101.58883 | 5994 ft | 226 kts | 133° |
| 2026-05-07 05:50 | 2.73662 | 101.59982 | 5870 ft | 225 kts | 134° |
| 2026-05-07 05:50 | 2.72549 | 101.61058 | 5754 ft | 226 kts | 134° |
| 2026-05-07 05:51 | 2.71440 | 101.62165 | 5582 ft | 223 kts | 131° |
| 2026-05-07 05:51 | 2.70380 | 101.63301 | 5318 ft | 223 kts | 131° |
| 2026-05-07 05:51 | 2.69335 | 101.64422 | 5072 ft | 222 kts | 131° |
| 2026-05-07 05:51 | 2.68277 | 101.65551 | 4810 ft | 221 kts | 131° |
| 2026-05-07 05:52 | 2.67230 | 101.66662 | 4651 ft | 216 kts | 131° |
| 2026-05-07 05:52 | 2.66193 | 101.67763 | 4524 ft | 220 kts | 131° |
| 2026-05-07 05:52 | 2.65133 | 101.68886 | 4308 ft | 224 kts | 131° |
| 2026-05-07 05:52 | 2.64075 | 101.70006 | 4124 ft | 221 kts | 131° |
| 2026-05-07 05:53 | 2.63031 | 101.71113 | 3913 ft | 218 kts | 131° |
| 2026-05-07 05:53 | 2.61994 | 101.72209 | 3700 ft | 215 kts | 132° |
| 2026-05-07 05:53 | 2.60965 | 101.73299 | 3426 ft | 216 kts | 131° |
| 2026-05-07 05:53 | 2.59947 | 101.74382 | 3179 ft | 215 kts | 131° |
| 2026-05-07 05:54 | 2.58965 | 101.75419 | 3380 ft | 196 kts | 132° |
| 2026-05-07 05:54 | 2.58012 | 101.76392 | 4273 ft | 194 kts | 133° |
| 2026-05-07 05:54 | 2.56760 | 101.77465 | 3267 ft | 282 kts | 145° |
| 2026-05-07 05:54 | 2.55084 | 101.78612 | 3583 ft | 281 kts | 134° |
| 2026-05-07 05:55 | 2.53979 | 101.80085 | 5275 ft | 253 kts | 123° |
| 2026-05-07 05:55 | 2.52761 | 101.81277 | 6495 ft | 244 kts | 150° |
| 2026-05-07 05:55 | 2.51107 | 101.81827 | 6883 ft | 270 kts | 169° |
| 2026-05-07 05:55 | 2.49099 | 101.81680 | 6799 ft | 310 kts | 197° |
| 2026-05-07 05:56 | 2.47151 | 101.80602 | 6790 ft | 341 kts | 220° |
| 2026-05-07 05:56 | 2.45618 | 101.78684 | 6767 ft | 367 kts | 242° |
| 2026-05-07 05:56 | 2.44811 | 101.76194 | 6745 ft | 388 kts | 262° |
| 2026-05-07 05:56 | 2.44847 | 101.73444 | 6724 ft | 404 kts | 280° |
| 2026-05-07 05:57 | 2.45730 | 101.70722 | 6694 ft | 416 kts | 297° |
| 2026-05-07 05:57 | 2.47300 | 101.68324 | 6673 ft | 411 kts | 309° |
| 2026-05-07 05:57 | 2.49060 | 101.66132 | 6161 ft | 398 kts | 310° |
| 2026-05-07 05:57 | 2.50786 | 101.64008 | 5480 ft | 384 kts | 311° |
| 2026-05-07 05:58 | 2.52733 | 101.62267 | 4768 ft | 368 kts | 329° |
| 2026-05-07 05:58 | 2.55002 | 101.61304 | 4056 ft | 353 kts | 348° |
| 2026-05-07 05:58 | 2.57362 | 101.61256 | 3857 ft | 313 kts | 18° |